Time;durP1;ratioP1;P1;durP2;ratioP2;P2;SDS_P1;SDS_P2;PMS_P1;PMS_P2;Temp;Humidity;BMP_temperature;BMP_pressure;BME280_temperature;BME280_humidity;BME280_pressure;Samples;Min_cycle;Max_cycle;Signal;HPM_P1;HPM_P2
2022/12/06 00:00:06;;;;;;;83.42;42.55;;;;;;;11.02;81.27;99243.91;4316369;80;28583;-83
2022/12/06 00:06:18;;;;;;;83.78;43.95;;;;;;;11.01;81.92;99236.09;4322039;81;28576;-84
2022/12/06 00:12:20;;;;;;;93.67;43.92;;;;;;;10.95;81.75;99221.68;4317490;81;28647;-85
2022/12/06 00:18:21;;;;;;;91.15;44.18;;;;;;;10.91;82.77;99221.02;4337750;80;28586;-85
2022/12/06 00:24:22;;;;;;;84.15;43.73;;;;;;;10.85;83.02;99210.11;4317337;80;28535;-85
2022/12/06 00:30:24;;;;;;;91.72;45.08;;;;;;;10.92;83.48;99210.55;4318146;82;28513;-85
2022/12/06 00:36:29;;;;;;;87.88;45.35;;;;;;;10.80;83.76;99202.44;4318473;81;28533;-85
2022/12/06 00:42:31;;;;;;;93.20;46.17;;;;;;;11.06;83.23;99220.06;4252619;81;38607;-85
2022/12/06 00:48:33;;;;;;;96.37;47.08;;;;;;;11.48;80.29;99213.00;4321035;81;28506;-85
2022/12/06 00:54:34;;;;;;;96.20;47.55;;;;;;;11.31;80.88;99215.05;4265535;81;28570;-84
2022/12/06 01:00:36;;;;;;;95.00;47.30;;;;;;;11.40;80.46;99204.23;4305607;81;28494;-84
2022/12/06 01:06:37;;;;;;;97.57;48.25;;;;;;;11.26;81.24;99201.44;4274608;82;28482;-85
2022/12/06 01:12:39;;;;;;;97.88;49.67;;;;;;;11.60;79.76;99190.93;4300902;81;28540;-87
2022/12/06 01:18:42;;;;;;;94.85;47.03;;;;;;;11.55;79.31;99186.24;4338615;81;28562;-85
2022/12/06 01:24:47;;;;;;;98.85;47.80;;;;;;;11.30;80.80;99183.80;4314667;81;28502;-86
2022/12/06 01:30:48;;;;;;;100.25;48.90;;;;;;;11.07;82.88;99167.88;4311859;81;28503;-86
2022/12/06 01:36:49;;;;;;;101.25;50.40;;;;;;;10.97;83.86;99158.21;4327235;81;28536;-84
2022/12/06 01:42:51;;;;;;;93.03;47.62;;;;;;;11.37;82.43;99156.22;4313687;81;28472;-85
2022/12/06 01:49:07;;;;;;;90.05;46.08;;;;;;;11.32;82.04;99145.86;4338375;81;28517;-86
2022/12/06 01:55:10;;;;;;;89.00;46.30;;;;;;;11.49;80.54;99146.81;4299868;81;28531;-87
2022/12/06 02:01:12;;;;;;;81.45;43.58;;;;;;;11.59;79.97;99134.09;4317835;81;28587;-86
2022/12/06 02:07:14;;;;;;;86.35;41.80;;;;;;;11.07;81.27;99116.77;4333634;81;28525;-85
2022/12/06 02:13:15;;;;;;;79.47;41.83;;;;;;;10.68;85.04;99103.72;4292005;81;28545;-86
2022/12/06 02:19:55;;;;;;;77.00;41.63;;;;;;;10.94;84.50;99101.68;4319927;81;28535;-84
2022/12/06 02:26:17;;;;;;;78.45;40.58;;;;;;;10.84;84.22;99082.61;4259461;82;28527;-84
2022/12/06 02:32:35;;;;;;;77.17;40.90;;;;;;;10.91;84.51;99077.11;4215505;83;28523;-84
2022/12/06 02:38:45;;;;;;;78.15;41.23;;;;;;;10.94;84.71;99073.44;4226431;83;28631;-83
2022/12/06 02:44:57;;;;;;;78.67;40.98;;;;;;;11.18;84.69;99059.15;4253787;83;28531;-83
2022/12/06 02:51:04;;;;;;;81.25;41.80;;;;;;;10.80;86.14;99058.55;4235572;83;28506;-82
2022/12/06 02:57:05;;;;;;;79.67;39.73;;;;;;;10.38;91.59;99046.75;4235758;83;28531;-83
2022/12/06 03:03:26;;;;;;;73.57;38.60;;;;;;;10.28;92.81;99030.36;4234482;84;28482;-83
2022/12/06 03:09:48;;;;;;;72.95;37.63;;;;;;;10.71;89.90;99019.89;4229134;83;28470;-84
2022/12/06 03:16:07;;;;;;;71.90;37.67;;;;;;;11.09;88.02;99022.38;4228213;83;28510;-83
2022/12/06 03:22:13;;;;;;;72.22;36.08;;;;;;;11.33;86.14;99027.20;4155817;83;28526;-83
2022/12/06 03:28:17;;;;;;;67.30;34.03;;;;;;;10.71;88.42;99021.23;4306204;81;28505;-84
2022/12/06 03:34:36;;;;;;;73.00;36.38;;;;;;;10.80;88.25;99015.02;4330679;80;28564;-85
2022/12/06 03:40:42;;;;;;;85.28;40.03;;;;;;;10.35;91.39;99010.94;4349212;80;28613;-84
2022/12/06 03:46:48;;;;;;;75.03;36.33;;;;;;;10.64;90.15;98994.17;4320680;81;28517;-83
2022/12/06 03:52:51;;;;;;;68.03;34.97;;;;;;;10.30;91.44;99007.59;4319208;81;28522;-86
2022/12/06 03:58:53;;;;;;;56.30;29.10;;;;;;;9.93;94.05;99006.89;4326519;81;28556;-85
2022/12/06 04:04:54;;;;;;;55.28;30.08;;;;;;;9.38;96.31;98994.66;4326690;81;28509;-84
2022/12/06 04:10:55;;;;;;;53.63;27.75;;;;;;;9.86;95.46;98976.91;4315086;81;28506;-84
2022/12/06 04:23:20;;;;;;;51.53;28.40;;;;;;;10.28;91.68;98972.08;4292135;81;28544;-87
2022/12/06 04:48:21;;;;;;;52.40;26.52;;;;;;;9.80;93.40;98959.55;4273484;82;28541;-84
2022/12/06 04:54:23;;;;;;;53.85;28.45;;;;;;;10.10;90.28;98960.89;4254531;82;28455;-85
2022/12/06 05:00:25;;;;;;;49.77;24.87;;;;;;;10.17;90.80;98965.62;4253431;82;28587;-85
2022/12/06 05:06:26;;;;;;;48.58;25.23;;;;;;;10.46;86.97;98953.72;4272972;82;28499;-86
2022/12/06 05:12:27;;;;;;;52.03;26.42;;;;;;;9.91;88.73;98953.40;4254571;82;28537;-86
2022/12/06 05:18:29;;;;;;;49.05;25.40;;;;;;;10.60;86.27;98954.32;4253346;82;28499;-86
2022/12/06 05:24:31;;;;;;;45.45;24.27;;;;;;;10.72;85.10;98942.74;4241762;82;28511;-86
2022/12/06 05:30:32;;;;;;;48.35;25.35;;;;;;;10.62;85.47;98948.72;4244356;82;28580;-86
2022/12/06 05:36:33;;;;;;;52.33;27.50;;;;;;;10.54;85.04;98928.91;4234661;82;28523;-77
2022/12/06 05:42:34;;;;;;;56.55;28.27;;;;;;;10.30;87.23;98916.74;4240410;82;28527;-78
2022/12/06 05:48:36;;;;;;;53.92;27.55;;;;;;;9.92;88.96;98916.09;4221676;82;28541;-78
2022/12/06 05:54:40;;;;;;;55.55;26.95;;;;;;;9.63;92.02;98913.20;4237730;82;28621;-77
2022/12/06 06:00:43;;;;;;;51.08;26.33;;;;;;;9.67;91.75;98902.83;4224771;82;28565;-78
2022/12/06 06:06:44;;;;;;;57.48;27.93;;;;;;;9.96;90.79;98899.83;4238933;82;28491;-84
2022/12/06 06:12:46;;;;;;;54.63;27.98;;;;;;;9.78;91.48;98910.64;4225824;82;28529;-84
2022/12/06 06:18:47;;;;;;;52.15;26.45;;;;;;;10.32;89.47;98909.29;4218540;82;28534;-85
2022/12/06 06:24:50;;;;;;;53.08;26.75;;;;;;;10.10;89.44;98909.85;4237335;82;28507;-87
2022/12/06 06:30:52;;;;;;;58.02;28.32;;;;;;;10.20;89.32;98909.27;4241714;82;28503;-84
2022/12/06 06:36:53;;;;;;;51.88;26.55;;;;;;;10.41;88.77;98894.97;4228357;82;28504;-81
2022/12/06 06:42:56;;;;;;;48.90;25.60;;;;;;;10.04;90.37;98892.77;4259127;82;28644;-79
2022/12/06 06:49:00;;;;;;;50.65;25.75;;;;;;;10.04;90.19;98895.45;4290371;81;28504;-84
2022/12/06 07:01:19;;;;;;;46.37;25.43;;;;;;;10.08;89.51;98882.38;4083268;85;28522;-82
2022/12/06 07:07:22;;;;;;;44.93;24.40;;;;;;;10.31;89.80;98876.21;4084740;85;28544;-82
2022/12/06 07:13:26;;;;;;;43.65;24.15;;;;;;;10.26;89.32;98869.39;4077456;86;28569;-82
2022/12/06 07:19:27;;;;;;;42.05;23.20;;;;;;;10.11;90.80;98867.16;4074886;85;28487;-82
2022/12/06 07:25:30;;;;;;;35.45;19.98;;;;;;;10.12;90.41;98871.48;4076763;85;28593;-81
2022/12/06 07:31:32;;;;;;;36.17;20.43;;;;;;;10.12;89.92;98874.16;4074952;85;28545;-82
2022/12/06 07:37:34;;;;;;;35.13;19.85;;;;;;;10.02;90.55;98875.27;4215689;82;28574;-82
2022/12/06 07:49:55;;;;;;;31.90;18.12;;;;;;;9.58;93.05;98864.77;4242036;82;28517;-82
2022/12/06 07:55:56;;;;;;;34.80;18.73;;;;;;;9.78;91.54;98854.25;4241780;84;28540;-82
2022/12/06 08:01:57;;;;;;;33.25;18.73;;;;;;;9.66;92.04;98834.91;4238486;84;28594;-81
2022/12/06 08:07:59;;;;;;;32.03;17.92;;;;;;;10.08;90.25;98836.71;4235363;83;28502;-81
2022/12/06 08:14:03;;;;;;;33.28;18.40;;;;;;;9.94;89.51;98824.56;4239119;82;28549;-81
2022/12/06 08:20:07;;;;;;;31.15;17.50;;;;;;;9.48;91.85;98826.42;4257826;82;28566;-81
2022/12/06 08:26:13;;;;;;;30.32;17.55;;;;;;;9.41;92.65;98825.69;4215232;82;28510;-81
2022/12/06 08:32:14;;;;;;;29.52;17.05;;;;;;;9.98;90.53;98826.56;4133791;84;28562;-82
2022/12/06 08:38:18;;;;;;;29.00;17.20;;;;;;;9.83;89.14;98838.26;4186407;84;28505;-82
2022/12/06 08:44:20;;;;;;;29.92;16.32;;;;;;;9.94;89.40;98841.48;4179962;84;28563;-82
2022/12/06 08:50:22;;;;;;;26.77;15.45;;;;;;;10.31;87.64;98839.13;4196347;84;28501;-82
2022/12/06 08:56:24;;;;;;;23.60;14.15;;;;;;;10.62;86.01;98836.31;4159557;83;28514;-82
2022/12/06 09:02:25;;;;;;;22.05;14.25;;;;;;;10.45;84.82;98836.52;4138879;84;28497;-81
2022/12/06 09:08:27;;;;;;;24.45;13.68;;;;;;;10.43;86.11;98830.56;4167993;84;28459;-82
2022/12/06 09:14:28;;;;;;;22.87;14.40;;;;;;;10.19;85.94;98833.75;4163557;84;28593;-81
2022/12/06 09:20:29;;;;;;;21.57;14.47;;;;;;;10.20;85.63;98834.04;4151533;84;28539;-82
2022/12/06 09:26:31;;;;;;;22.20;13.62;;;;;;;10.62;84.26;98826.39;4179484;82;28512;-82
2022/12/06 09:32:32;;;;;;;23.45;14.25;;;;;;;10.45;85.31;98817.70;4250723;82;28451;-82
2022/12/06 09:38:37;;;;;;;21.90;13.53;;;;;;;10.81;82.74;98821.67;4250870;84;28517;-81
2022/12/06 09:45:09;;;;;;;24.35;13.32;;;;;;;10.89;82.05;98816.44;4252660;82;28479;-81
2022/12/06 09:51:37;;;;;;;21.82;13.58;;;;;;;10.90;82.34;98800.58;4255733;82;28511;-82
2022/12/06 09:58:27;;;;;;;20.70;13.60;;;;;;;10.82;83.84;98795.06;4211752;82;28507;-81
2022/12/06 10:04:57;;;;;;;24.05;14.43;;;;;;;11.12;81.58;98782.42;4220572;82;28480;-82
2022/12/06 10:11:28;;;;;;;21.93;13.35;;;;;;;11.05;82.15;98775.84;4277319;82;28542;-82
2022/12/06 10:17:56;;;;;;;22.77;13.95;;;;;;;10.87;83.21;98773.63;4260499;82;28541;-80
2022/12/06 10:24:36;;;;;;;21.52;13.35;;;;;;;10.98;83.00;98761.72;4250554;82;28519;-80
2022/12/06 10:30:45;;;;;;;21.20;13.10;;;;;;;11.08;82.19;98758.42;4226987;82;28478;-80
2022/12/06 10:36:55;;;;;;;21.02;13.08;;;;;;;11.10;81.40;98763.86;4236140;82;28510;-81
2022/12/06 10:43:17;;;;;;;21.55;13.58;;;;;;;11.55;79.04;98760.03;4204816;82;28481;-81
2022/12/06 10:49:36;;;;;;;20.17;12.37;;;;;;;11.31;79.58;98746.72;4295150;81;28543;-81
2022/12/06 10:55:55;;;;;;;20.37;12.80;;;;;;;11.47;78.02;98744.27;4239142;82;28536;-80
2022/12/06 11:02:01;;;;;;;20.75;12.88;;;;;;;11.03;80.88;98733.58;4230113;84;28553;-81
2022/12/06 11:08:19;;;;;;;21.73;13.40;;;;;;;11.79;77.42;98729.70;4205493;82;28582;-81
2022/12/06 11:14:29;;;;;;;22.15;13.72;;;;;;;12.08;75.72;98723.39;4251041;82;28490;-82
2022/12/06 11:20:57;;;;;;;19.57;12.98;;;;;;;12.54;73.54;98728.56;4254555;82;28552;-81
2022/12/06 11:27:14;;;;;;;21.75;12.98;;;;;;;12.54;72.39;98722.61;4244149;82;28526;-81
2022/12/06 11:33:18;;;;;;;20.65;13.25;;;;;;;12.13;74.30;98714.84;4256199;82;28523;-81
2022/12/06 11:39:23;;;;;;;19.60;13.13;;;;;;;11.97;75.79;98705.71;4253225;82;28516;-81
2022/12/06 11:45:30;;;;;;;21.57;13.35;;;;;;;11.85;76.70;98704.45;4252926;82;28510;-81
2022/12/06 11:51:31;;;;;;;21.27;13.70;;;;;;;12.04;75.22;98712.84;4271922;82;28474;-81
2022/12/06 11:57:38;;;;;;;21.75;13.60;;;;;;;12.08;76.15;98708.06;4253533;82;28499;-81
2022/12/06 12:03:43;;;;;;;21.45;13.43;;;;;;;12.28;75.78;98710.70;4252514;82;28609;-80
2022/12/06 12:09:59;;;;;;;22.60;14.15;;;;;;;12.11;76.86;98700.81;4253916;82;28562;-81
2022/12/06 12:16:24;;;;;;;26.07;15.15;;;;;;;12.16;75.20;98698.72;4215938;82;28502;-81
2022/12/06 12:22:41;;;;;;;24.07;14.73;;;;;;;12.06;74.83;98695.89;4253073;82;28562;-81
2022/12/06 12:29:08;;;;;;;26.30;15.95;;;;;;;12.07;76.32;98696.17;4270528;82;28604;-81
2022/12/06 12:35:27;;;;;;;24.07;14.33;;;;;;;11.86;78.08;98697.20;4239231;82;28573;-81
2022/12/06 12:41:39;;;;;;;24.95;15.60;;;;;;;11.98;78.63;98687.13;4222911;82;28587;-82
2022/12/06 12:48:03;;;;;;;22.95;14.58;;;;;;;11.77;79.86;98678.48;4263070;81;28528;-82
2022/12/06 12:54:26;;;;;;;24.57;15.35;;;;;;;11.95;79.90;98670.64;4252877;81;28613;-81
2022/12/06 13:00:38;;;;;;;26.80;16.52;;;;;;;12.02;79.05;98679.89;4239095;83;28505;-81
2022/12/06 13:06:57;;;;;;;25.40;15.43;;;;;;;12.11;78.81;98669.82;4203776;84;28503;-82
2022/12/06 13:13:17;;;;;;;24.47;14.93;;;;;;;12.11;78.65;98665.78;4207786;82;28543;-81
2022/12/06 13:19:22;;;;;;;23.73;14.38;;;;;;;11.93;80.85;98671.44;4249684;82;28565;-81
2022/12/06 13:25:23;;;;;;;21.25;13.22;;;;;;;11.85;79.99;98672.14;4211424;82;28533;-80
2022/12/06 13:31:30;;;;;;;19.00;11.50;;;;;;;11.64;79.64;98674.27;4251235;82;28491;-81
2022/12/06 13:38:04;;;;;;;11.08;6.85;;;;;;;10.98;82.09;98678.33;4253071;84;28523;-80
2022/12/06 13:44:27;;;;;;;9.18;5.20;;;;;;;11.19;78.29;98672.78;4240335;82;28553;-80
2022/12/06 13:50:37;;;;;;;6.72;4.50;;;;;;;10.99;78.29;98678.65;4267482;82;28565;-81
2022/12/06 13:56:44;;;;;;;8.35;4.78;;;;;;;10.76;77.64;98680.92;4216512;82;28481;-81
2022/12/06 14:02:45;;;;;;;8.13;4.87;;;;;;;10.17;78.07;98696.16;4212810;82;28524;-80
2022/12/06 14:08:53;;;;;;;10.93;6.30;;;;;;;10.63;78.58;98681.50;4281115;82;28557;-82
2022/12/06 14:15:01;;;;;;;10.98;5.28;;;;;;;10.71;77.52;98685.67;4273619;82;28577;-80
2022/12/06 14:21:02;;;;;;;8.33;4.92;;;;;;;10.51;78.58;98673.98;4238011;82;28476;-81
2022/12/06 14:27:15;;;;;;;9.03;4.92;;;;;;;10.69;78.72;98663.59;4201936;82;28498;-81
2022/12/06 14:33:22;;;;;;;6.30;3.80;;;;;;;10.80;76.44;98666.75;4200684;83;28518;-81
2022/12/06 14:46:13;;;;;;;9.53;4.40;;;;;;;10.72;75.20;98665.80;4025936;86;28606;-81
2022/12/06 14:52:28;;;;;;;7.83;4.42;;;;;;;10.88;75.54;98669.05;4075554;86;28529;-81
2022/12/06 14:58:37;;;;;;;9.25;4.95;;;;;;;10.93;75.43;98679.06;4133107;85;28541;-81
2022/12/06 15:04:39;;;;;;;9.85;5.67;;;;;;;10.78;75.86;98680.97;4144235;85;28537;-81
2022/12/06 15:10:54;;;;;;;10.23;6.25;;;;;;;10.41;78.20;98673.25;4138047;85;28578;-81
2022/12/06 15:17:09;;;;;;;10.50;6.53;;;;;;;10.86;76.00;98673.84;4185833;83;28567;-80
2022/12/06 15:23:28;;;;;;;10.58;6.20;;;;;;;10.73;76.32;98676.83;4258734;81;28493;-80
2022/12/06 15:29:30;;;;;;;12.10;6.92;;;;;;;10.63;75.92;98683.36;4281402;81;28521;-80
2022/12/06 15:35:31;;;;;;;10.90;6.55;;;;;;;10.79;75.10;98671.84;4341452;81;28532;-82
2022/12/06 15:41:36;;;;;;;12.33;7.40;;;;;;;10.83;74.81;98674.84;4345914;81;28551;-82
2022/12/06 15:47:39;;;;;;;11.60;6.70;;;;;;;10.88;74.88;98674.95;4354929;81;28544;-81
2022/12/06 15:53:41;;;;;;;12.88;8.08;;;;;;;10.72;74.56;98668.48;4368518;81;28536;-81
2022/12/06 15:59:42;;;;;;;14.38;8.05;;;;;;;10.29;75.87;98675.45;4352384;81;28546;-81
2022/12/06 16:05:44;;;;;;;14.45;7.80;;;;;;;10.27;75.76;98662.78;4358735;81;28555;-81
2022/12/06 16:13:20;;;;;;;13.58;7.30;;;;;;;9.95;76.89;98663.22;4359824;81;28537;-82
2022/12/06 16:18:47;;;;;;;12.53;7.67;;;;;;;10.09;75.71;98661.06;4159375;84;28545;-82
2022/12/06 16:24:56;;;;;;;15.35;8.98;;;;;;;10.06;76.15;98665.56;4164527;83;28537;-82
2022/12/06 16:31:13;;;;;;;13.98;8.23;;;;;;;10.35;75.43;98655.38;4103796;83;28563;-83
2022/12/06 16:37:22;;;;;;;16.82;8.95;;;;;;;10.29;74.45;98661.19;4240976;81;28544;-82
2022/12/06 16:43:32;;;;;;;15.60;9.15;;;;;;;9.97;76.50;98664.30;4233240;81;28458;-81
2022/12/06 16:49:47;;;;;;;17.60;10.32;;;;;;;9.74;77.76;98661.94;4284438;81;28496;-82
2022/12/06 16:55:54;;;;;;;18.07;10.77;;;;;;;9.66;78.65;98670.34;4293179;81;28499;-81
2022/12/06 17:02:01;;;;;;;19.25;10.32;;;;;;;9.63;79.35;98654.17;4261227;81;28512;-82
2022/12/06 17:08:08;;;;;;;17.27;9.75;;;;;;;9.70;78.47;98659.45;4250288;82;28543;-82
2022/12/06 17:14:17;;;;;;;18.23;10.32;;;;;;;9.90;77.79;98665.77;4227214;83;28557;-81
2022/12/06 17:20:20;;;;;;;18.15;9.28;;;;;;;9.74;78.23;98671.34;4162256;83;28509;-78
2022/12/06 17:26:22;;;;;;;13.70;8.50;;;;;;;9.82;77.86;98672.84;4244337;81;28538;-78
2022/12/06 17:32:23;;;;;;;12.78;7.42;;;;;;;9.83;77.51;98676.64;4334336;81;28545;-78
2022/12/06 17:38:28;;;;;;;14.55;7.92;;;;;;;9.90;76.91;98671.14;4261065;82;28587;-82
2022/12/06 17:44:29;;;;;;;14.45;8.25;;;;;;;9.91;77.65;98674.11;4262256;82;28471;-82
2022/12/06 17:50:31;;;;;;;13.72;7.90;;;;;;;9.68;79.24;98674.44;4249867;82;28944;-78
2022/12/06 17:56:42;;;;;;;12.55;8.38;;;;;;;9.51;79.45;98669.47;4261917;82;28479;-79
2022/12/06 18:02:49;;;;;;;16.73;8.98;;;;;;;9.60;79.16;98674.78;4247717;82;28518;-79
2022/12/06 18:08:50;;;;;;;14.65;8.48;;;;;;;9.69;79.50;98669.89;4275827;82;28509;-78
2022/12/06 18:14:51;;;;;;;13.70;8.23;;;;;;;9.56;80.48;98665.57;4260215;82;28588;-78
2022/12/06 18:20:52;;;;;;;15.50;8.40;;;;;;;9.49;80.49;98665.16;4269455;82;28600;-78
2022/12/06 18:26:56;;;;;;;15.10;8.65;;;;;;;9.40;81.49;98663.06;4278296;82;28542;-77
2022/12/06 18:33:03;;;;;;;18.62;9.70;;;;;;;9.81;79.99;98664.50;4264134;81;28541;-76
2022/12/06 18:39:10;;;;;;;15.30;9.15;;;;;;;9.90;80.70;98671.97;4262204;82;28593;-76
2022/12/06 18:45:12;;;;;;;16.67;8.93;;;;;;;9.51;81.13;98666.78;4276480;81;28498;-76
2022/12/06 18:51:17;;;;;;;16.80;8.70;;;;;;;9.23;82.87;98665.08;4249086;82;28507;-76
2022/12/06 18:57:19;;;;;;;14.50;7.58;;;;;;;9.38;82.29;98657.92;4264000;81;28535;-76
2022/12/06 19:03:22;;;;;;;13.88;8.58;;;;;;;9.05;84.13;98663.30;4275117;82;28485;-76
2022/12/06 19:09:26;;;;;;;12.82;7.00;;;;;;;9.24;83.65;98661.34;4263762;81;28530;-76
2022/12/06 19:15:27;;;;;;;13.78;7.37;;;;;;;9.25;83.15;98664.86;4258943;82;28552;-76
2022/12/06 19:21:32;;;;;;;15.48;8.55;;;;;;;9.22;83.00;98666.67;4298899;82;28598;-77
2022/12/06 19:27:35;;;;;;;13.85;8.05;;;;;;;9.18;83.92;98666.31;4261058;82;28523;-77
2022/12/06 19:33:42;;;;;;;15.25;7.83;;;;;;;9.04;82.93;98669.72;4234558;82;28541;-79
2022/12/06 19:39:43;;;;;;;15.60;8.53;;;;;;;9.14;83.33;98665.95;4236109;81;28510;-81
2022/12/06 19:45:47;;;;;;;14.83;8.08;;;;;;;8.95;83.06;98665.19;4266201;82;28730;-86
2022/12/06 19:51:51;;;;;;;15.83;8.50;;;;;;;8.97;83.09;98660.95;4275126;82;28615;-77
2022/12/06 19:57:53;;;;;;;14.30;8.45;;;;;;;8.88;83.54;98659.13;4261001;82;28514;-81
2022/12/06 20:03:55;;;;;;;13.68;7.97;;;;;;;9.07;83.50;98653.16;4251789;82;28537;-81
2022/12/06 20:09:59;;;;;;;13.83;7.78;;;;;;;8.97;84.47;98660.95;4250927;82;28513;-82
2022/12/06 20:16:05;;;;;;;;;;;;;;;8.91;84.40;98655.48;4261738;82;28622;-78
2022/12/06 20:28:18;;;;;;;14.23;7.67;;;;;;;9.13;83.80;98655.44;4223594;82;28543;-83
2022/12/06 20:34:19;;;;;;;12.93;7.03;;;;;;;9.02;84.01;98648.48;4223542;82;28538;-81
2022/12/06 20:40:21;;;;;;;13.70;7.28;;;;;;;9.22;84.83;98654.06;4251012;82;28535;-83
2022/12/06 20:46:26;;;;;;;14.20;7.25;;;;;;;9.18;85.40;98646.19;4266588;82;28497;-82
2022/12/06 20:52:28;;;;;;;12.83;6.67;;;;;;;8.86;85.37;98649.97;4251915;82;28537;-80
2022/12/06 20:58:31;;;;;;;14.60;6.87;;;;;;;9.08;83.69;98652.11;4221920;82;28527;-77
2022/12/06 21:04:33;;;;;;;13.45;6.92;;;;;;;8.99;83.41;98652.15;4222963;82;28546;-76
2022/12/06 21:10:36;;;;;;;13.40;6.85;;;;;;;8.88;83.49;98657.25;4234883;82;28576;-76
2022/12/06 21:16:40;;;;;;;13.98;7.97;;;;;;;9.00;82.38;98663.16;4245372;82;28578;-75
2022/12/06 21:22:41;;;;;;;11.78;6.75;;;;;;;9.13;82.39;98668.34;4250056;82;28554;-76
2022/12/06 21:28:43;;;;;;;11.40;6.30;;;;;;;8.75;83.83;98674.37;4249334;82;28578;-75
2022/12/06 21:34:44;;;;;;;12.00;6.55;;;;;;;8.79;83.73;98678.22;4223691;82;28539;-75
2022/12/06 21:40:46;;;;;;;11.53;6.58;;;;;;;8.86;82.89;98679.45;4230994;82;28545;-75
2022/12/06 21:46:52;;;;;;;8.95;5.47;;;;;;;9.00;81.98;98680.08;4214262;82;28567;-75
2022/12/06 21:52:55;;;;;;;10.53;5.60;;;;;;;8.87;81.50;98676.27;4200123;82;28559;-75
2022/12/06 21:58:59;;;;;;;9.95;5.78;;;;;;;9.09;80.11;98671.17;4231498;82;28604;-75
2022/12/06 22:05:00;;;;;;;11.43;6.08;;;;;;;8.67;81.27;98672.01;4246615;82;28536;-75
2022/12/06 22:11:15;;;;;;;12.40;6.53;;;;;;;8.93;80.58;98676.67;4236867;82;28559;-75
2022/12/06 22:17:17;;;;;;;11.60;6.73;;;;;;;8.78;81.16;98680.61;4226707;82;28552;-76
2022/12/06 22:23:18;;;;;;;13.45;6.90;;;;;;;9.16;80.27;98685.30;4291171;82;28615;-76
2022/12/06 22:29:20;;;;;;;10.93;5.95;;;;;;;8.68;80.95;98674.98;4259887;82;28487;-76
2022/12/06 22:35:22;;;;;;;9.85;5.85;;;;;;;8.99;80.37;98667.73;4240248;82;28574;-76
2022/12/06 22:41:26;;;;;;;10.10;5.22;;;;;;;8.95;80.90;98672.44;4236368;82;28553;-76
2022/12/06 22:47:27;;;;;;;10.55;6.08;;;;;;;9.06;80.35;98677.84;4239748;82;28486;-76
2022/12/06 22:53:28;;;;;;;11.73;5.72;;;;;;;8.90;80.54;98679.31;4260738;82;28474;-75
2022/12/06 22:59:30;;;;;;;10.58;5.50;;;;;;;8.91;81.50;98674.24;4263649;82;28479;-76
2022/12/06 23:05:32;;;;;;;10.03;5.15;;;;;;;8.89;81.32;98668.81;4306037;81;28497;-76
2022/12/06 23:11:36;;;;;;;9.05;4.92;;;;;;;8.96;80.55;98664.68;4229049;82;28581;-75
2022/12/06 23:17:38;;;;;;;9.33;5.65;;;;;;;9.15;79.70;98670.27;4249793;82;28523;-76
2022/12/06 23:23:43;;;;;;;10.25;5.83;;;;;;;8.94;80.57;98658.20;4262345;82;28522;-76
2022/12/06 23:29:44;;;;;;;11.00;6.25;;;;;;;9.13;79.83;98654.09;4238440;82;46175;-75
2022/12/06 23:35:45;;;;;;;10.78;5.70;;;;;;;9.02;80.18;98650.37;4215558;82;28585;-75
2022/12/06 23:41:47;;;;;;;9.10;5.67;;;;;;;8.92;80.90;98645.05;4249361;82;28523;-75
2022/12/06 23:47:48;;;;;;;12.20;6.35;;;;;;;8.92;81.00;98638.84;4222677;82;28480;-77
2022/12/06 23:53:53;;;;;;;10.78;6.10;;;;;;;9.10;80.16;98639.82;4263039;82;28573;-74
2022/12/06 23:59:54;;;;;;;10.25;5.87;;;;;;;9.07;80.04;98638.41;4232245;82;28611;-75
